sensor_id;sensor_type;location;lat;lon;timestamp;P1;durP1;ratioP1;P2;durP2;ratioP2
53293;SDS011;39181;53.440;5.644;2022-10-16T00:00:37;10.77;;;1.23;;
53293;SDS011;39181;53.440;5.644;2022-10-16T00:03:04;12.07;;;1.52;;
53293;SDS011;39181;53.440;5.644;2022-10-16T00:05:30;12.00;;;1.50;;
53293;SDS011;39181;53.440;5.644;2022-10-16T00:07:56;12.32;;;2.20;;
53293;SDS011;39181;53.440;5.644;2022-10-16T00:10:21;11.65;;;1.90;;
53293;SDS011;39181;53.440;5.644;2022-10-16T00:12:47;12.00;;;1.48;;
53293;SDS011;39181;53.440;5.644;2022-10-16T00:15:13;9.02;;;1.17;;
53293;SDS011;39181;53.440;5.644;2022-10-16T00:17:39;10.00;;;1.45;;
53293;SDS011;39181;53.440;5.644;2022-10-16T00:20:04;15.73;;;2.33;;
53293;SDS011;39181;53.440;5.644;2022-10-16T00:22:30;10.65;;;1.42;;
53293;SDS011;39181;53.440;5.644;2022-10-16T00:24:56;12.80;;;2.13;;
53293;SDS011;39181;53.440;5.644;2022-10-16T00:27:21;6.05;;;1.25;;
53293;SDS011;39181;53.440;5.644;2022-10-16T00:29:50;6.18;;;1.38;;
53293;SDS011;39181;53.440;5.644;2022-10-16T00:32:17;10.23;;;1.58;;
53293;SDS011;39181;53.440;5.644;2022-10-16T00:34:44;7.88;;;1.30;;
53293;SDS011;39181;53.440;5.644;2022-10-16T00:37:10;9.75;;;1.30;;
53293;SDS011;39181;53.440;5.644;2022-10-16T00:39:35;6.90;;;1.30;;
53293;SDS011;39181;53.440;5.644;2022-10-16T00:42:01;10.75;;;1.35;;
53293;SDS011;39181;53.440;5.644;2022-10-16T00:49:59;11.90;;;1.35;;
53293;SDS011;39181;53.440;5.644;2022-10-16T00:52:32;11.38;;;1.27;;
53293;SDS011;39181;53.440;5.644;2022-10-16T00:54:57;10.30;;;1.73;;
53293;SDS011;39181;53.440;5.644;2022-10-16T00:57:24;12.13;;;1.30;;
53293;SDS011;39181;53.440;5.644;2022-10-16T00:59:50;11.57;;;1.80;;
53293;SDS011;39181;53.440;5.644;2022-10-16T01:02:17;7.07;;;1.35;;
53293;SDS011;39181;53.440;5.644;2022-10-16T01:04:52;9.10;;;1.55;;
53293;SDS011;39181;53.440;5.644;2022-10-16T01:10:46;8.27;;;1.30;;
53293;SDS011;39181;53.440;5.644;2022-10-16T01:13:17;13.15;;;1.33;;
53293;SDS011;39181;53.440;5.644;2022-10-16T01:18:30;9.60;;;1.33;;
53293;SDS011;39181;53.440;5.644;2022-10-16T01:21:10;9.70;;;1.52;;
53293;SDS011;39181;53.440;5.644;2022-10-16T01:29:40;13.27;;;1.90;;
53293;SDS011;39181;53.440;5.644;2022-10-16T01:35:10;13.57;;;1.52;;
53293;SDS011;39181;53.440;5.644;2022-10-16T01:37:40;13.23;;;1.67;;
53293;SDS011;39181;53.440;5.644;2022-10-16T01:40:14;13.05;;;1.33;;
53293;SDS011;39181;53.440;5.644;2022-10-16T01:42:48;7.40;;;1.27;;
53293;SDS011;39181;53.440;5.644;2022-10-16T01:45:28;8.25;;;1.00;;
53293;SDS011;39181;53.440;5.644;2022-10-16T01:47:56;9.52;;;1.13;;
53293;SDS011;39181;53.440;5.644;2022-10-16T01:50:25;11.63;;;1.60;;
53293;SDS011;39181;53.440;5.644;2022-10-16T01:52:52;9.30;;;1.38;;
53293;SDS011;39181;53.440;5.644;2022-10-16T01:55:25;9.25;;;1.27;;
53293;SDS011;39181;53.440;5.644;2022-10-16T01:57:55;8.77;;;1.30;;
53293;SDS011;39181;53.440;5.644;2022-10-16T02:00:22;10.90;;;1.48;;
53293;SDS011;39181;53.440;5.644;2022-10-16T02:02:49;11.38;;;1.50;;
53293;SDS011;39181;53.440;5.644;2022-10-16T02:05:20;13.43;;;1.27;;
53293;SDS011;39181;53.440;5.644;2022-10-16T02:08:04;13.50;;;1.63;;
53293;SDS011;39181;53.440;5.644;2022-10-16T02:10:29;14.18;;;1.35;;
53293;SDS011;39181;53.440;5.644;2022-10-16T02:15:46;5.28;;;0.90;;
53293;SDS011;39181;53.440;5.644;2022-10-16T02:18:12;12.35;;;1.50;;
53293;SDS011;39181;53.440;5.644;2022-10-16T02:23:24;12.20;;;1.50;;
53293;SDS011;39181;53.440;5.644;2022-10-16T02:26:01;13.40;;;1.75;;
53293;SDS011;39181;53.440;5.644;2022-10-16T02:28:34;7.90;;;1.55;;
53293;SDS011;39181;53.440;5.644;2022-10-16T02:31:07;12.43;;;1.73;;
53293;SDS011;39181;53.440;5.644;2022-10-16T02:33:36;14.45;;;1.48;;
53293;SDS011;39181;53.440;5.644;2022-10-16T02:36:05;6.25;;;1.60;;
53293;SDS011;39181;53.440;5.644;2022-10-16T02:38:31;10.70;;;1.55;;
53293;SDS011;39181;53.440;5.644;2022-10-16T02:40:57;11.15;;;1.70;;
53293;SDS011;39181;53.440;5.644;2022-10-16T02:43:22;15.73;;;1.33;;
53293;SDS011;39181;53.440;5.644;2022-10-16T02:45:50;10.55;;;1.30;;
53293;SDS011;39181;53.440;5.644;2022-10-16T02:48:16;13.32;;;1.63;;
53293;SDS011;39181;53.440;5.644;2022-10-16T02:50:41;14.85;;;1.83;;
53293;SDS011;39181;53.440;5.644;2022-10-16T02:53:07;14.70;;;1.60;;
53293;SDS011;39181;53.440;5.644;2022-10-16T02:55:32;11.10;;;2.03;;
53293;SDS011;39181;53.440;5.644;2022-10-16T02:57:58;17.00;;;1.88;;
53293;SDS011;39181;53.440;5.644;2022-10-16T03:00:23;21.75;;;2.35;;
53293;SDS011;39181;53.440;5.644;2022-10-16T03:02:49;16.42;;;2.72;;
53293;SDS011;39181;53.440;5.644;2022-10-16T03:05:15;21.58;;;2.42;;
53293;SDS011;39181;53.440;5.644;2022-10-16T03:07:40;20.67;;;2.08;;
53293;SDS011;39181;53.440;5.644;2022-10-16T03:10:06;24.95;;;2.17;;
53293;SDS011;39181;53.440;5.644;2022-10-16T03:12:32;12.55;;;2.00;;
53293;SDS011;39181;53.440;5.644;2022-10-16T03:14:58;27.48;;;2.28;;
53293;SDS011;39181;53.440;5.644;2022-10-16T03:17:24;17.58;;;2.40;;
53293;SDS011;39181;53.440;5.644;2022-10-16T03:19:50;17.80;;;2.20;;
53293;SDS011;39181;53.440;5.644;2022-10-16T03:22:16;20.00;;;2.03;;
53293;SDS011;39181;53.440;5.644;2022-10-16T03:24:41;16.73;;;2.17;;
53293;SDS011;39181;53.440;5.644;2022-10-16T03:27:07;19.38;;;2.47;;
53293;SDS011;39181;53.440;5.644;2022-10-16T03:29:32;11.50;;;2.00;;
53293;SDS011;39181;53.440;5.644;2022-10-16T03:31:58;8.30;;;1.52;;
53293;SDS011;39181;53.440;5.644;2022-10-16T03:34:24;9.35;;;1.65;;
53293;SDS011;39181;53.440;5.644;2022-10-16T03:36:50;11.75;;;1.90;;
53293;SDS011;39181;53.440;5.644;2022-10-16T03:39:16;11.27;;;2.10;;
53293;SDS011;39181;53.440;5.644;2022-10-16T03:41:42;11.27;;;1.95;;
53293;SDS011;39181;53.440;5.644;2022-10-16T03:44:07;7.88;;;2.05;;
53293;SDS011;39181;53.440;5.644;2022-10-16T03:46:33;5.97;;;1.80;;
53293;SDS011;39181;53.440;5.644;2022-10-16T03:48:58;7.88;;;2.53;;
53293;SDS011;39181;53.440;5.644;2022-10-16T03:51:24;7.50;;;1.38;;
53293;SDS011;39181;53.440;5.644;2022-10-16T03:53:49;6.97;;;1.75;;
53293;SDS011;39181;53.440;5.644;2022-10-16T03:56:15;10.13;;;1.67;;
53293;SDS011;39181;53.440;5.644;2022-10-16T03:58:40;8.38;;;1.83;;
53293;SDS011;39181;53.440;5.644;2022-10-16T04:01:06;7.63;;;1.40;;
53293;SDS011;39181;53.440;5.644;2022-10-16T04:03:32;8.48;;;1.35;;
53293;SDS011;39181;53.440;5.644;2022-10-16T04:05:57;4.60;;;1.50;;
53293;SDS011;39181;53.440;5.644;2022-10-16T04:08:23;7.82;;;1.77;;
53293;SDS011;39181;53.440;5.644;2022-10-16T04:10:48;7.07;;;1.75;;
53293;SDS011;39181;53.440;5.644;2022-10-16T04:13:14;4.22;;;1.25;;
53293;SDS011;39181;53.440;5.644;2022-10-16T04:15:40;7.40;;;1.17;;
53293;SDS011;39181;53.440;5.644;2022-10-16T04:18:05;5.72;;;1.20;;
53293;SDS011;39181;53.440;5.644;2022-10-16T04:20:32;7.03;;;1.63;;
53293;SDS011;39181;53.440;5.644;2022-10-16T04:22:58;8.43;;;1.20;;
53293;SDS011;39181;53.440;5.644;2022-10-16T04:25:23;12.45;;;2.03;;
53293;SDS011;39181;53.440;5.644;2022-10-16T04:27:49;7.22;;;1.10;;
53293;SDS011;39181;53.440;5.644;2022-10-16T04:30:15;4.50;;;1.13;;
53293;SDS011;39181;53.440;5.644;2022-10-16T04:32:40;10.50;;;1.85;;
53293;SDS011;39181;53.440;5.644;2022-10-16T04:35:06;11.98;;;2.45;;
53293;SDS011;39181;53.440;5.644;2022-10-16T04:37:32;11.55;;;1.60;;
53293;SDS011;39181;53.440;5.644;2022-10-16T04:39:57;6.72;;;1.35;;
53293;SDS011;39181;53.440;5.644;2022-10-16T04:42:23;12.70;;;1.70;;
53293;SDS011;39181;53.440;5.644;2022-10-16T04:44:49;14.38;;;1.67;;
53293;SDS011;39181;53.440;5.644;2022-10-16T04:47:14;8.10;;;1.25;;
53293;SDS011;39181;53.440;5.644;2022-10-16T04:49:40;6.75;;;1.25;;
53293;SDS011;39181;53.440;5.644;2022-10-16T04:52:05;8.02;;;1.33;;
53293;SDS011;39181;53.440;5.644;2022-10-16T04:54:31;7.85;;;1.00;;
53293;SDS011;39181;53.440;5.644;2022-10-16T04:56:57;7.70;;;1.25;;
53293;SDS011;39181;53.440;5.644;2022-10-16T04:59:22;9.18;;;1.30;;
53293;SDS011;39181;53.440;5.644;2022-10-16T05:01:48;7.18;;;1.48;;
53293;SDS011;39181;53.440;5.644;2022-10-16T05:04:14;8.65;;;1.48;;
53293;SDS011;39181;53.440;5.644;2022-10-16T05:06:40;4.10;;;1.35;;
53293;SDS011;39181;53.440;5.644;2022-10-16T05:09:06;9.23;;;1.42;;
53293;SDS011;39181;53.440;5.644;2022-10-16T05:11:32;6.15;;;1.30;;
53293;SDS011;39181;53.440;5.644;2022-10-16T05:13:58;6.70;;;1.92;;
53293;SDS011;39181;53.440;5.644;2022-10-16T05:16:24;5.78;;;1.17;;
53293;SDS011;39181;53.440;5.644;2022-10-16T05:18:50;10.23;;;1.20;;
53293;SDS011;39181;53.440;5.644;2022-10-16T05:21:16;5.18;;;1.05;;
53293;SDS011;39181;53.440;5.644;2022-10-16T05:23:42;5.82;;;1.20;;
53293;SDS011;39181;53.440;5.644;2022-10-16T05:26:07;8.10;;;1.23;;
53293;SDS011;39181;53.440;5.644;2022-10-16T05:28:33;13.23;;;1.58;;
53293;SDS011;39181;53.440;5.644;2022-10-16T05:30:58;11.55;;;1.67;;
53293;SDS011;39181;53.440;5.644;2022-10-16T05:33:25;12.25;;;1.83;;
53293;SDS011;39181;53.440;5.644;2022-10-16T05:35:51;8.02;;;1.05;;
53293;SDS011;39181;53.440;5.644;2022-10-16T05:38:17;14.88;;;1.50;;
53293;SDS011;39181;53.440;5.644;2022-10-16T05:40:43;14.93;;;1.73;;
53293;SDS011;39181;53.440;5.644;2022-10-16T05:43:15;11.95;;;1.67;;
53293;SDS011;39181;53.440;5.644;2022-10-16T05:45:40;14.23;;;1.77;;
53293;SDS011;39181;53.440;5.644;2022-10-16T05:48:06;13.23;;;1.50;;
53293;SDS011;39181;53.440;5.644;2022-10-16T05:50:31;22.50;;;2.00;;
53293;SDS011;39181;53.440;5.644;2022-10-16T05:52:57;15.82;;;1.73;;
53293;SDS011;39181;53.440;5.644;2022-10-16T05:55:22;13.10;;;1.80;;
53293;SDS011;39181;53.440;5.644;2022-10-16T05:57:48;9.07;;;2.00;;
53293;SDS011;39181;53.440;5.644;2022-10-16T06:00:13;12.70;;;1.50;;
53293;SDS011;39181;53.440;5.644;2022-10-16T06:02:39;8.25;;;1.15;;
53293;SDS011;39181;53.440;5.644;2022-10-16T06:05:04;7.93;;;1.35;;
53293;SDS011;39181;53.440;5.644;2022-10-16T06:07:33;9.20;;;1.67;;
53293;SDS011;39181;53.440;5.644;2022-10-16T06:10:00;5.40;;;1.50;;
53293;SDS011;39181;53.440;5.644;2022-10-16T06:12:26;9.88;;;1.95;;
53293;SDS011;39181;53.440;5.644;2022-10-16T06:14:52;11.77;;;1.90;;
53293;SDS011;39181;53.440;5.644;2022-10-16T06:17:17;6.90;;;1.80;;
53293;SDS011;39181;53.440;5.644;2022-10-16T06:19:43;7.13;;;1.38;;
53293;SDS011;39181;53.440;5.644;2022-10-16T06:22:08;8.30;;;2.15;;
53293;SDS011;39181;53.440;5.644;2022-10-16T06:24:36;7.72;;;2.22;;
53293;SDS011;39181;53.440;5.644;2022-10-16T06:27:03;8.48;;;1.77;;
53293;SDS011;39181;53.440;5.644;2022-10-16T06:29:29;4.53;;;1.80;;
53293;SDS011;39181;53.440;5.644;2022-10-16T06:31:55;8.00;;;1.58;;
53293;SDS011;39181;53.440;5.644;2022-10-16T06:34:20;8.13;;;1.75;;
53293;SDS011;39181;53.440;5.644;2022-10-16T06:36:46;10.25;;;1.55;;
53293;SDS011;39181;53.440;5.644;2022-10-16T06:39:11;20.73;;;3.35;;
53293;SDS011;39181;53.440;5.644;2022-10-16T06:41:37;9.63;;;2.00;;
53293;SDS011;39181;53.440;5.644;2022-10-16T06:44:06;7.22;;;1.70;;
53293;SDS011;39181;53.440;5.644;2022-10-16T06:46:32;10.18;;;2.05;;
53293;SDS011;39181;53.440;5.644;2022-10-16T06:48:58;13.57;;;2.08;;
53293;SDS011;39181;53.440;5.644;2022-10-16T06:51:24;14.95;;;1.92;;
53293;SDS011;39181;53.440;5.644;2022-10-16T06:53:51;6.75;;;1.88;;
53293;SDS011;39181;53.440;5.644;2022-10-16T06:58:45;6.00;;;1.42;;
53293;SDS011;39181;53.440;5.644;2022-10-16T07:01:11;8.23;;;1.73;;
53293;SDS011;39181;53.440;5.644;2022-10-16T07:03:38;15.15;;;2.35;;
53293;SDS011;39181;53.440;5.644;2022-10-16T07:06:05;9.52;;;1.73;;
53293;SDS011;39181;53.440;5.644;2022-10-16T07:08:33;8.95;;;1.75;;
53293;SDS011;39181;53.440;5.644;2022-10-16T07:11:00;8.98;;;1.48;;
53293;SDS011;39181;53.440;5.644;2022-10-16T07:13:27;6.82;;;2.10;;
53293;SDS011;39181;53.440;5.644;2022-10-16T07:15:53;11.45;;;2.13;;
53293;SDS011;39181;53.440;5.644;2022-10-16T07:18:19;12.70;;;1.70;;
53293;SDS011;39181;53.440;5.644;2022-10-16T07:20:45;12.35;;;1.67;;
53293;SDS011;39181;53.440;5.644;2022-10-16T07:23:10;7.15;;;1.33;;
53293;SDS011;39181;53.440;5.644;2022-10-16T07:25:36;8.43;;;1.50;;
53293;SDS011;39181;53.440;5.644;2022-10-16T07:28:01;11.57;;;1.50;;
53293;SDS011;39181;53.440;5.644;2022-10-16T07:30:27;11.65;;;1.75;;
53293;SDS011;39181;53.440;5.644;2022-10-16T07:32:53;16.30;;;2.42;;
53293;SDS011;39181;53.440;5.644;2022-10-16T07:35:18;13.18;;;1.83;;
53293;SDS011;39181;53.440;5.644;2022-10-16T07:37:44;10.40;;;1.52;;
53293;SDS011;39181;53.440;5.644;2022-10-16T07:40:11;10.43;;;1.50;;
53293;SDS011;39181;53.440;5.644;2022-10-16T07:42:36;11.18;;;1.77;;
53293;SDS011;39181;53.440;5.644;2022-10-16T07:45:02;12.50;;;1.88;;
53293;SDS011;39181;53.440;5.644;2022-10-16T07:47:28;12.85;;;1.60;;
53293;SDS011;39181;53.440;5.644;2022-10-16T07:49:53;8.55;;;1.85;;
53293;SDS011;39181;53.440;5.644;2022-10-16T07:52:19;9.63;;;2.10;;
53293;SDS011;39181;53.440;5.644;2022-10-16T07:54:44;10.07;;;1.85;;
53293;SDS011;39181;53.440;5.644;2022-10-16T07:57:10;10.98;;;1.40;;
53293;SDS011;39181;53.440;5.644;2022-10-16T07:59:35;8.80;;;1.25;;
53293;SDS011;39181;53.440;5.644;2022-10-16T08:02:01;6.75;;;1.17;;
53293;SDS011;39181;53.440;5.644;2022-10-16T08:04:26;14.13;;;1.80;;
53293;SDS011;39181;53.440;5.644;2022-10-16T08:06:52;9.70;;;1.63;;
53293;SDS011;39181;53.440;5.644;2022-10-16T08:09:19;9.13;;;1.60;;
53293;SDS011;39181;53.440;5.644;2022-10-16T08:11:44;13.63;;;2.83;;
53293;SDS011;39181;53.440;5.644;2022-10-16T08:14:10;10.52;;;1.77;;
53293;SDS011;39181;53.440;5.644;2022-10-16T08:16:35;12.00;;;1.92;;
53293;SDS011;39181;53.440;5.644;2022-10-16T08:19:01;14.77;;;1.88;;
53293;SDS011;39181;53.440;5.644;2022-10-16T08:21:27;15.40;;;1.70;;
53293;SDS011;39181;53.440;5.644;2022-10-16T08:23:53;19.27;;;2.58;;
53293;SDS011;39181;53.440;5.644;2022-10-16T08:26:20;13.15;;;2.03;;
53293;SDS011;39181;53.440;5.644;2022-10-16T08:28:46;13.80;;;1.42;;
53293;SDS011;39181;53.440;5.644;2022-10-16T08:31:15;15.10;;;2.67;;
53293;SDS011;39181;53.440;5.644;2022-10-16T08:33:42;15.45;;;3.00;;
53293;SDS011;39181;53.440;5.644;2022-10-16T08:36:10;16.80;;;2.70;;
53293;SDS011;39181;53.440;5.644;2022-10-16T08:38:36;13.85;;;3.10;;
53293;SDS011;39181;53.440;5.644;2022-10-16T08:41:17;15.25;;;2.80;;
53293;SDS011;39181;53.440;5.644;2022-10-16T08:49:29;16.23;;;2.83;;
53293;SDS011;39181;53.440;5.644;2022-10-16T08:51:55;22.00;;;3.42;;
53293;SDS011;39181;53.440;5.644;2022-10-16T08:54:27;17.30;;;2.42;;
53293;SDS011;39181;53.440;5.644;2022-10-16T08:57:19;26.02;;;3.05;;
53293;SDS011;39181;53.440;5.644;2022-10-16T08:59:46;19.23;;;3.40;;
53293;SDS011;39181;53.440;5.644;2022-10-16T09:02:19;19.67;;;2.83;;
53293;SDS011;39181;53.440;5.644;2022-10-16T09:10:11;19.67;;;3.25;;
53293;SDS011;39181;53.440;5.644;2022-10-16T09:12:52;25.02;;;3.30;;
53293;SDS011;39181;53.440;5.644;2022-10-16T09:18:38;22.27;;;2.47;;
53293;SDS011;39181;53.440;5.644;2022-10-16T09:24:12;23.65;;;3.42;;
53293;SDS011;39181;53.440;5.644;2022-10-16T09:26:43;23.15;;;3.17;;
53293;SDS011;39181;53.440;5.644;2022-10-16T09:29:17;21.20;;;2.60;;
53293;SDS011;39181;53.440;5.644;2022-10-16T09:31:47;20.15;;;2.38;;
53293;SDS011;39181;53.440;5.644;2022-10-16T09:34:32;21.90;;;2.70;;
53293;SDS011;39181;53.440;5.644;2022-10-16T09:37:08;22.58;;;3.67;;
53293;SDS011;39181;53.440;5.644;2022-10-16T09:39:50;21.45;;;3.90;;
53293;SDS011;39181;53.440;5.644;2022-10-16T09:42:20;21.63;;;3.38;;
53293;SDS011;39181;53.440;5.644;2022-10-16T09:44:50;17.98;;;3.70;;
53293;SDS011;39181;53.440;5.644;2022-10-16T09:47:23;24.33;;;3.22;;
53293;SDS011;39181;53.440;5.644;2022-10-16T09:50:00;19.77;;;2.90;;
53293;SDS011;39181;53.440;5.644;2022-10-16T09:52:31;17.65;;;3.00;;
53293;SDS011;39181;53.440;5.644;2022-10-16T09:54:59;20.70;;;4.60;;
53293;SDS011;39181;53.440;5.644;2022-10-16T09:57:27;20.75;;;3.25;;
53293;SDS011;39181;53.440;5.644;2022-10-16T09:59:53;20.30;;;2.63;;
53293;SDS011;39181;53.440;5.644;2022-10-16T10:02:30;23.35;;;3.95;;
53293;SDS011;39181;53.440;5.644;2022-10-16T10:04:58;22.70;;;3.38;;
53293;SDS011;39181;53.440;5.644;2022-10-16T10:07:25;13.75;;;2.10;;
53293;SDS011;39181;53.440;5.644;2022-10-16T10:09:52;22.55;;;3.00;;
53293;SDS011;39181;53.440;5.644;2022-10-16T10:14:47;17.85;;;2.22;;
53293;SDS011;39181;53.440;5.644;2022-10-16T10:17:16;13.50;;;2.72;;
53293;SDS011;39181;53.440;5.644;2022-10-16T10:20:33;23.65;;;3.17;;
53293;SDS011;39181;53.440;5.644;2022-10-16T10:30:46;13.85;;;1.98;;
53293;SDS011;39181;53.440;5.644;2022-10-16T10:33:30;15.00;;;2.58;;
53293;SDS011;39181;53.440;5.644;2022-10-16T10:38:48;16.50;;;2.10;;
53293;SDS011;39181;53.440;5.644;2022-10-16T10:41:24;14.00;;;2.08;;
53293;SDS011;39181;53.440;5.644;2022-10-16T10:46:54;15.60;;;2.88;;
53293;SDS011;39181;53.440;5.644;2022-10-16T11:01:12;15.73;;;2.08;;
53293;SDS011;39181;53.440;5.644;2022-10-16T11:06:45;13.63;;;1.88;;
53293;SDS011;39181;53.440;5.644;2022-10-16T11:09:21;20.33;;;2.15;;
53293;SDS011;39181;53.440;5.644;2022-10-16T11:12:01;16.15;;;2.40;;
53293;SDS011;39181;53.440;5.644;2022-10-16T11:14:40;11.80;;;2.15;;
53293;SDS011;39181;53.440;5.644;2022-10-16T11:17:18;16.92;;;2.33;;
53293;SDS011;39181;53.440;5.644;2022-10-16T11:20:11;14.57;;;2.20;;
53293;SDS011;39181;53.440;5.644;2022-10-16T11:22:53;13.90;;;2.22;;
53293;SDS011;39181;53.440;5.644;2022-10-16T11:25:32;16.52;;;2.25;;
53293;SDS011;39181;53.440;5.644;2022-10-16T11:33:42;15.27;;;1.77;;
53293;SDS011;39181;53.440;5.644;2022-10-16T11:36:14;14.05;;;1.90;;
53293;SDS011;39181;53.440;5.644;2022-10-16T11:38:53;12.15;;;1.75;;
53293;SDS011;39181;53.440;5.644;2022-10-16T11:41:33;8.65;;;1.50;;
53293;SDS011;39181;53.440;5.644;2022-10-16T11:44:05;20.70;;;2.72;;
53293;SDS011;39181;53.440;5.644;2022-10-16T11:49:44;11.88;;;1.80;;
53293;SDS011;39181;53.440;5.644;2022-10-16T11:52:20;11.23;;;2.10;;
53293;SDS011;39181;53.440;5.644;2022-10-16T11:55:17;15.07;;;2.08;;
53293;SDS011;39181;53.440;5.644;2022-10-16T11:57:51;11.90;;;1.98;;
53293;SDS011;39181;53.440;5.644;2022-10-16T12:03:34;14.32;;;1.98;;
53293;SDS011;39181;53.440;5.644;2022-10-16T12:06:33;16.50;;;2.03;;
53293;SDS011;39181;53.440;5.644;2022-10-16T12:09:21;11.83;;;1.90;;
53293;SDS011;39181;53.440;5.644;2022-10-16T12:11:50;16.13;;;2.42;;
53293;SDS011;39181;53.440;5.644;2022-10-16T12:19:31;10.55;;;1.95;;
53293;SDS011;39181;53.440;5.644;2022-10-16T12:21:58;10.13;;;1.60;;
53293;SDS011;39181;53.440;5.644;2022-10-16T12:24:29;14.48;;;1.67;;
53293;SDS011;39181;53.440;5.644;2022-10-16T12:27:20;10.65;;;1.58;;
53293;SDS011;39181;53.440;5.644;2022-10-16T12:29:57;10.45;;;1.83;;
53293;SDS011;39181;53.440;5.644;2022-10-16T12:35:04;12.35;;;1.88;;
53293;SDS011;39181;53.440;5.644;2022-10-16T12:37:42;18.27;;;2.67;;
53293;SDS011;39181;53.440;5.644;2022-10-16T12:40:16;17.35;;;2.60;;
53293;SDS011;39181;53.440;5.644;2022-10-16T12:42:53;14.88;;;1.88;;
53293;SDS011;39181;53.440;5.644;2022-10-16T12:47:54;9.73;;;1.42;;
53293;SDS011;39181;53.440;5.644;2022-10-16T12:50:25;12.07;;;2.08;;
53293;SDS011;39181;53.440;5.644;2022-10-16T12:53:03;10.80;;;1.48;;
53293;SDS011;39181;53.440;5.644;2022-10-16T12:55:53;11.48;;;1.75;;
53293;SDS011;39181;53.440;5.644;2022-10-16T13:01:56;12.48;;;2.35;;
53293;SDS011;39181;53.440;5.644;2022-10-16T13:04:15;17.33;;;1.90;;
53293;SDS011;39181;53.440;5.644;2022-10-16T13:09:25;11.40;;;1.40;;
53293;SDS011;39181;53.440;5.644;2022-10-16T13:26:30;7.95;;;1.23;;
53293;SDS011;39181;53.440;5.644;2022-10-16T13:29:06;13.68;;;1.90;;
53293;SDS011;39181;53.440;5.644;2022-10-16T13:31:31;10.40;;;1.33;;
53293;SDS011;39181;53.440;5.644;2022-10-16T13:33:59;10.73;;;1.80;;
53293;SDS011;39181;53.440;5.644;2022-10-16T13:36:27;9.07;;;1.65;;
53293;SDS011;39181;53.440;5.644;2022-10-16T13:39:00;10.35;;;1.73;;
53293;SDS011;39181;53.440;5.644;2022-10-16T13:41:42;10.23;;;1.75;;
53293;SDS011;39181;53.440;5.644;2022-10-16T13:44:11;8.80;;;1.30;;
53293;SDS011;39181;53.440;5.644;2022-10-16T13:46:42;12.50;;;1.15;;
53293;SDS011;39181;53.440;5.644;2022-10-16T13:49:12;14.32;;;2.30;;
53293;SDS011;39181;53.440;5.644;2022-10-16T13:51:40;12.57;;;2.22;;
53293;SDS011;39181;53.440;5.644;2022-10-16T13:54:07;11.05;;;1.83;;
53293;SDS011;39181;53.440;5.644;2022-10-16T13:56:35;16.67;;;1.48;;
53293;SDS011;39181;53.440;5.644;2022-10-16T13:59:05;7.05;;;1.85;;
53293;SDS011;39181;53.440;5.644;2022-10-16T14:01:46;9.85;;;1.83;;
53293;SDS011;39181;53.440;5.644;2022-10-16T14:04:12;10.13;;;2.28;;
53293;SDS011;39181;53.440;5.644;2022-10-16T14:06:43;10.10;;;2.42;;
53293;SDS011;39181;53.440;5.644;2022-10-16T14:11:52;14.27;;;3.67;;
53293;SDS011;39181;53.440;5.644;2022-10-16T14:14:20;14.68;;;3.67;;
53293;SDS011;39181;53.440;5.644;2022-10-16T14:16:47;13.88;;;3.20;;
53293;SDS011;39181;53.440;5.644;2022-10-16T14:19:15;8.27;;;1.52;;
53293;SDS011;39181;53.440;5.644;2022-10-16T14:21:49;11.25;;;2.58;;
53293;SDS011;39181;53.440;5.644;2022-10-16T14:24:22;10.60;;;2.13;;
53293;SDS011;39181;53.440;5.644;2022-10-16T14:26:56;11.73;;;2.70;;
53293;SDS011;39181;53.440;5.644;2022-10-16T14:29:23;12.95;;;1.77;;
53293;SDS011;39181;53.440;5.644;2022-10-16T14:31:56;9.23;;;2.38;;
53293;SDS011;39181;53.440;5.644;2022-10-16T14:34:24;13.18;;;1.63;;
53293;SDS011;39181;53.440;5.644;2022-10-16T14:36:52;12.48;;;1.75;;
53293;SDS011;39181;53.440;5.644;2022-10-16T14:39:22;14.43;;;1.63;;
53293;SDS011;39181;53.440;5.644;2022-10-16T14:41:50;9.90;;;1.67;;
53293;SDS011;39181;53.440;5.644;2022-10-16T14:44:17;17.65;;;2.15;;
53293;SDS011;39181;53.440;5.644;2022-10-16T14:46:44;12.90;;;1.60;;
53293;SDS011;39181;53.440;5.644;2022-10-16T14:51:36;9.95;;;1.98;;
53293;SDS011;39181;53.440;5.644;2022-10-16T14:54:07;16.15;;;1.55;;
53293;SDS011;39181;53.440;5.644;2022-10-16T14:56:46;19.85;;;2.70;;
53293;SDS011;39181;53.440;5.644;2022-10-16T14:59:27;14.32;;;1.90;;
53293;SDS011;39181;53.440;5.644;2022-10-16T15:04:45;10.40;;;2.30;;
53293;SDS011;39181;53.440;5.644;2022-10-16T15:07:10;12.80;;;2.08;;
53293;SDS011;39181;53.440;5.644;2022-10-16T15:09:36;7.57;;;1.65;;
53293;SDS011;39181;53.440;5.644;2022-10-16T15:12:01;11.75;;;2.20;;
53293;SDS011;39181;53.440;5.644;2022-10-16T15:14:27;9.18;;;1.92;;
53293;SDS011;39181;53.440;5.644;2022-10-16T15:16:53;13.93;;;2.05;;
53293;SDS011;39181;53.440;5.644;2022-10-16T15:19:18;17.23;;;2.42;;
53293;SDS011;39181;53.440;5.644;2022-10-16T15:21:44;7.80;;;2.17;;
53293;SDS011;39181;53.440;5.644;2022-10-16T15:24:11;7.93;;;1.60;;
53293;SDS011;39181;53.440;5.644;2022-10-16T15:26:38;14.77;;;1.90;;
53293;SDS011;39181;53.440;5.644;2022-10-16T15:29:04;11.52;;;1.77;;
53293;SDS011;39181;53.440;5.644;2022-10-16T15:31:30;10.18;;;2.47;;
53293;SDS011;39181;53.440;5.644;2022-10-16T15:33:56;8.50;;;1.25;;
53293;SDS011;39181;53.440;5.644;2022-10-16T15:36:29;12.98;;;1.55;;
53293;SDS011;39181;53.440;5.644;2022-10-16T15:38:58;11.77;;;1.38;;
53293;SDS011;39181;53.440;5.644;2022-10-16T15:41:24;10.75;;;2.33;;
53293;SDS011;39181;53.440;5.644;2022-10-16T15:43:50;8.82;;;1.63;;
53293;SDS011;39181;53.440;5.644;2022-10-16T15:46:17;13.65;;;1.83;;
53293;SDS011;39181;53.440;5.644;2022-10-16T15:48:44;10.85;;;1.77;;
53293;SDS011;39181;53.440;5.644;2022-10-16T15:51:10;15.02;;;1.95;;
53293;SDS011;39181;53.440;5.644;2022-10-16T15:53:36;13.60;;;2.20;;
53293;SDS011;39181;53.440;5.644;2022-10-16T15:56:02;13.80;;;3.33;;
53293;SDS011;39181;53.440;5.644;2022-10-16T15:58:29;16.77;;;3.38;;
53293;SDS011;39181;53.440;5.644;2022-10-16T16:00:55;17.35;;;3.42;;
53293;SDS011;39181;53.440;5.644;2022-10-16T16:03:25;8.13;;;1.90;;
53293;SDS011;39181;53.440;5.644;2022-10-16T16:05:50;16.50;;;2.00;;
53293;SDS011;39181;53.440;5.644;2022-10-16T16:08:16;16.63;;;2.13;;
53293;SDS011;39181;53.440;5.644;2022-10-16T16:10:41;8.13;;;1.75;;
53293;SDS011;39181;53.440;5.644;2022-10-16T16:13:07;16.48;;;1.85;;
53293;SDS011;39181;53.440;5.644;2022-10-16T16:15:33;8.45;;;1.35;;
53293;SDS011;39181;53.440;5.644;2022-10-16T16:17:58;9.95;;;1.67;;
53293;SDS011;39181;53.440;5.644;2022-10-16T16:20:25;9.90;;;1.63;;
53293;SDS011;39181;53.440;5.644;2022-10-16T16:22:50;10.48;;;2.03;;
53293;SDS011;39181;53.440;5.644;2022-10-16T16:25:16;9.35;;;1.45;;
53293;SDS011;39181;53.440;5.644;2022-10-16T16:27:42;10.80;;;1.73;;
53293;SDS011;39181;53.440;5.644;2022-10-16T16:30:09;20.23;;;3.30;;
53293;SDS011;39181;53.440;5.644;2022-10-16T16:32:36;13.50;;;3.42;;
53293;SDS011;39181;53.440;5.644;2022-10-16T16:35:02;13.75;;;2.13;;
53293;SDS011;39181;53.440;5.644;2022-10-16T16:37:28;11.18;;;2.20;;
53293;SDS011;39181;53.440;5.644;2022-10-16T16:39:54;10.82;;;1.77;;
53293;SDS011;39181;53.440;5.644;2022-10-16T16:42:23;11.80;;;2.60;;
53293;SDS011;39181;53.440;5.644;2022-10-16T16:44:49;9.48;;;1.92;;
53293;SDS011;39181;53.440;5.644;2022-10-16T16:47:15;14.48;;;2.85;;
53293;SDS011;39181;53.440;5.644;2022-10-16T16:49:41;10.88;;;1.95;;
53293;SDS011;39181;53.440;5.644;2022-10-16T16:52:06;11.75;;;2.20;;
53293;SDS011;39181;53.440;5.644;2022-10-16T16:54:32;8.00;;;1.40;;